Latest Weather Observations for Thredbo Top Station

IDN60801

Issued at 5:02 am EST Friday 21 September 2018 (issued every 10 minutes, with the page automatically refreshed every 10 minutes)

About weather observations | Map of weather stations | Latest weather observations for NSW | Other Formats
Station Details ID: 071032 Name: THREDBO AWS Lat: -36.49 Lon: 148.29 Height: 1957.0 m
Data from the previous 72 hours. | See also: Recent months at Thredbo Top Station
Date/Time
EST
Temp
°C
App
Temp
°C
Dew
Point
°C
Rel
Hum
%
Delta-T
°C
Wind Press
QNH
hPa
Press
MSL
hPa
Rain since
9am
mm
Dir  Spd
km/h
Gust
km/h
Spd
kts
Gust
kts
21/05:00am -0.1 -8.0 -8.8 52 2.9 WNW 26 32 14 17 1023.7 1025.1 0.0
21/04:30am -0.5 -7.6 -8.9 53 2.7 WNW 22 26 12 14 1023.7 1025.1 0.0
21/04:00am 1.5 -6.1 -10.0 42 3.8 W 24 30 13 16 1023.5 1024.9 0.0
21/03:30am 1.0 -6.5 -9.0 47 3.4 W 24 28 13 15 1023.5 1024.9 0.0
21/03:00am -0.6 -8.0 -7.0 62 2.2 WNW 24 32 13 17 1023.5 1024.9 0.0
21/02:30am -0.2 -7.8 -9.6 49 3.0 WNW 24 28 13 15 1023.4 1024.7 0.0
21/02:00am 1.4 -5.9 -10.7 40 3.9 W 22 26 12 14 1023.7 1025.1 0.0
21/01:30am 1.7 -5.1 -9.5 43 3.8 W 20 24 11 13 1023.7 1025.1 0.0
21/01:00am 1.2 -5.6 -9.7 44 3.6 W 20 26 11 14 1023.7 1025.1 0.0
21/12:30am 1.0 -5.8 -9.9 44 3.6 W 20 24 11 13 1023.7 1025.1 0.0
21/12:00am -0.5 -4.6 -8.6 54 2.6 SW 6 13 3 7 1023.7 1025.1 0.0
 
Date/Time
EST
Temp
°C
App
Temp
°C
Dew
Point
°C
Rel
Hum
%
Delta-T
°C
Wind Press
QNH
hPa
Press
MSL
hPa
Rain since
9am
mm
Dir  Spd
km/h
Gust
km/h
Spd
kts
Gust
kts
20/11:30pm -0.8 -3.6 -6.7 64 2.0 CALM 0 2 0 1 1023.7 1025.1 0.0
20/11:00pm -1.5 -6.6 -5.3 75 1.3 WNW 13 17 7 9 1023.9 1025.2 0.0
20/10:30pm -2.1 -7.9 -4.9 81 0.9 WNW 17 20 9 11 1023.7 1025.1 0.0
20/10:00pm -2.2 -8.1 -5.2 80 1.0 NW 17 19 9 10 1023.5 1024.9 0.0
20/09:30pm -2.5 -8.3 -5.1 82 0.8 WNW 17 20 9 11 1023.1 1024.5 0.0
20/09:00pm -1.8 -7.6 -4.3 83 0.8 WNW 17 22 9 12 1022.8 1024.1 0.0
20/08:30pm -2.6 -8.8 -4.9 84 0.7 NW 19 24 10 13 1022.4 1023.7 0.0
20/08:00pm -3.0 -9.8 -4.9 87 0.5 NNW 22 28 12 15 1022.0 1023.3 0.0
20/07:30pm -2.4 -8.7 -4.3 87 0.6 NW 20 24 11 13 1022.2 1023.5 0.0
20/07:00pm -2.6 -9.3 -4.0 90 0.4 NNW 22 26 12 14 1021.6 1022.8 0.0
20/06:30pm -2.1 -9.9 -3.4 91 0.4 NNW 28 32 15 17 1021.2 1022.5 0.0
20/06:00pm -1.3 -8.6 -2.6 91 0.4 NW 26 30 14 16 1021.1 1022.3 0.0
20/05:30pm -1.0 -8.2 -2.4 90 0.5 NW 26 32 14 17 1020.7 1021.9 0.0
20/05:00pm -0.6 -8.3 -3.0 84 0.9 NNW 28 33 15 18 1019.9 1021.1 0.0
20/04:30pm -0.7 -9.1 -2.7 86 0.7 NNW 32 39 17 21 1019.4 1020.5 0.0
20/04:00pm -0.3 -8.0 -2.7 84 0.9 NNW 28 41 15 22 1019.4 1020.5 0.0
20/03:30pm -0.4 -6.9 -2.8 84 0.9 NW 22 32 12 17 1019.3 1020.4 0.0
20/03:00pm 0.0 -7.3 -2.7 82 1.0 NW 26 35 14 19 1019.4 1020.5 0.0
20/02:30pm 0.1 -6.9 -3.3 78 1.3 WNW 24 32 13 17 1019.0 1020.2 0.0
20/02:00pm 1.2 -5.3 -2.7 75 1.6 WNW 22 32 12 17 1018.8 1019.9 0.0
20/01:30pm 0.5 -6.9 -3.8 73 1.6 W 26 41 14 22 1018.5 1019.7 0.0
20/01:00pm 0.4 -5.9 -4.0 72 1.7 WNW 20 32 11 17 1018.2 1019.3 0.0
20/12:30pm 1.1 -2.6 -4.1 68 2.0 W 6 17 3 9 1018.2 1019.3 0.0
20/12:00pm 0.4 -5.5 -5.4 65 2.1 WSW 17 26 9 14 1018.4 1019.5 0.0
20/11:30am -1.0 -8.0 -6.7 65 1.9 WSW 22 32 12 17 1018.3 1019.4 0.0
20/11:00am -1.6 -9.8 -7.3 65 1.8 WSW 28 39 15 21 1017.9 1019.0 0.0
20/10:30am -1.7 -9.1 -7.4 65 1.8 WSW 24 37 13 20 1018.0 1019.2 0.0
20/10:00am -1.9 -9.4 -8.2 62 2.0 WSW 24 35 13 19 1017.8 1018.9 0.0
20/09:30am -2.4 -10.3 -8.7 62 1.9 WSW 26 39 14 21 1017.4 1018.5 0.0
20/09:00am -3.4 -12.5 -9.0 65 1.6 WSW 32 41 17 22 1016.8 1017.9 0.0
20/08:30am -3.6 -12.8 -11.1 56 2.1 WSW 32 41 17 22 1016.5 1017.5 0.0
20/08:00am -4.2 -13.6 -10.6 61 1.7 W 33 43 18 23 1015.7 1016.7 0.0
20/07:30am -4.6 -13.7 -9.2 70 1.2 WSW 32 43 17 23 1015.4 1016.4 0.0
20/07:00am -4.7 -14.3 -9.1 71 1.2 W 35 44 19 24 1014.9 1015.9 0.0
20/06:30am -5.0 -13.7 -9.6 70 1.2 W 30 39 16 21 1014.7 1015.6 0.0
20/06:00am -5.4 -14.5 -7.8 83 0.5 WSW 33 46 18 25 1014.4 1015.3 0.0
20/05:30am -5.4 -14.1 -9.3 74 1.0 WSW 30 41 16 22 1014.5 1015.5 0.0
20/05:00am -5.2 -14.3 -10.2 68 1.3 WSW 32 39 17 21 1014.4 1015.3 0.0
20/04:30am -5.4 -14.6 -10.5 67 1.3 SW 32 39 17 21 - - 0.0
20/04:00am -5.3 -14.3 -8.7 77 0.8 WSW 32 39 17 21 - - 0.0
20/03:30am -5.2 -13.7 -7.0 87 0.4 WSW 30 37 16 20 - - 0.0
20/03:00am -5.2 -12.8 -5.6 97 -0.1 WSW 26 37 14 20 - - 0.0
20/02:30am -5.0 -12.6 -5.5 96 0.0 WSW 26 33 14 18 - - 0.0
20/02:00am -4.9 -11.2 -5.6 95 0.0 WSW 19 24 10 13 1014.4 1015.3 0.0
20/01:30am -4.8 -10.7 -5.8 93 0.1 W 17 24 9 13 1014.5 1015.5 0.0
20/01:00am -4.5 -11.3 -5.5 93 0.1 W 22 28 12 15 1014.4 1015.3 0.0
20/12:30am -4.4 -11.6 -5.6 91 0.2 W 24 32 13 17 1014.4 1015.3 0.0
20/12:00am -4.4 -11.2 -5.4 93 0.1 W 22 33 12 18 1014.5 1015.5 0.0
 
Date/Time
EST
Temp
°C
App
Temp
°C
Dew
Point
°C
Rel
Hum
%
Delta-T
°C
Wind Press
QNH
hPa
Press
MSL
hPa
Rain since
9am
mm
Dir  Spd
km/h
Gust
km/h
Spd
kts
Gust
kts
19/11:30pm -4.2 -10.6 -5.2 93 0.2 W 20 28 11 15 1014.4 1015.3 0.0
19/11:00pm -4.1 -10.3 -4.6 96 0.0 W 19 26 10 14 1014.4 1015.3 0.0
19/10:30pm -4.0 -10.2 -4.5 96 0.0 W 19 26 10 14 1014.4 1015.3 0.0
19/10:00pm -4.1 -10.5 -4.9 94 0.1 WSW 20 32 11 17 1014.3 1015.2 0.0
19/09:30pm -3.7 -10.5 -4.7 93 0.2 WSW 22 32 12 17 - - 0.0
19/09:00pm -3.5 -10.6 -4.3 94 0.1 WSW 24 33 13 18 - - 0.0
19/08:30pm -3.1 -9.4 -4.4 91 0.3 WSW 20 37 11 20 - - 0.0
19/08:00pm -3.1 -9.4 -3.6 96 0.0 WNW 20 33 11 18 - - 0.0
19/07:30pm -2.9 -10.7 -3.6 95 0.1 WNW 28 37 15 20 - - 0.0
19/07:00pm -2.7 -10.5 -3.7 93 0.2 WNW 28 39 15 21 - - 0.0
19/06:30pm -2.4 -9.8 -3.7 91 0.4 WNW 26 39 14 21 - - 0.0
19/06:00pm -2.1 -9.1 -3.5 90 0.4 WNW 24 35 13 19 - - 0.0
19/05:30pm -1.8 -8.8 -3.2 90 0.4 WNW 24 33 13 18 - - 0.0
19/05:00pm -2.0 -10.1 -3.4 90 0.4 NW 30 41 16 22 - - 0.0
19/04:31pm -1.7 -10.4 -3.7 86 0.7 WNW 33 52 18 28 - - 0.0
19/04:30pm -1.7 -10.8 -3.9 85 0.7 WNW 35 52 19 28 - - 0.0
19/04:00pm -1.8 -11.2 -3.2 90 0.4 NW 37 46 20 25 - - 0.0
19/03:30pm -1.7 -11.2 -3.6 87 0.6 NW 37 54 20 29 - - 0.0
19/03:26pm -1.6 -10.8 -4.1 83 0.8 NW 35 54 19 29 - - 0.0
19/03:00pm -1.2 -11.5 -4.0 81 1.0 NW 41 52 22 28 - - 0.0
19/02:38pm -1.3 -10.9 -5.1 75 1.3 WNW 37 59 20 32 - - 0.0
19/02:30pm -1.3 -11.5 -3.5 85 0.8 NW 41 52 22 28 - - 0.0
19/02:08pm -1.8 -11.0 -4.3 83 0.8 NW 35 65 19 35 - - 0.0
19/02:00pm -1.7 -11.2 -3.9 85 0.7 NW 37 48 20 26 - - 0.0
19/01:40pm -1.7 -13.4 -5.0 78 1.1 NW 48 67 26 36 - - 0.0
19/01:30pm -2.0 -12.9 -4.2 85 0.7 NW 44 59 24 32 - - 0.0
19/01:00pm -2.0 -12.7 -4.5 83 0.8 NW 43 63 23 34 - - 0.0
19/12:30pm -1.4 -10.3 -4.9 77 1.2 NW 33 52 18 28 - - 0.0
19/12:03pm -1.5 -12.3 -3.8 84 0.8 NW 44 63 24 34 - - 0.0
19/12:00pm -1.2 -12.8 -3.9 82 0.9 WNW 48 63 26 34 - - 0.0
19/11:40am -1.3 -12.0 -4.5 79 1.1 WNW 43 63 23 34 - - 0.0
19/11:30am -2.0 -13.1 -5.8 75 1.2 WNW 44 59 24 32 - - 0.0
19/11:00am -2.1 -12.8 -4.0 87 0.6 NW 43 67 23 36 - - 0.0
19/10:33am -1.7 -12.5 -4.9 79 1.1 NW 43 65 23 35 - - 0.0
19/10:30am -2.2 -12.4 -3.6 90 0.4 NW 41 57 22 31 - - 0.0
19/10:23am -2.1 -12.7 -3.7 89 0.5 NW 43 61 23 33 - - 0.0
19/10:00am -2.2 -15.1 -5.5 78 1.1 NW 54 65 29 35 - - 0.0
19/09:40am -2.0 -13.5 -3.3 91 0.4 NW 48 67 26 36 - - 0.0
19/09:30am -2.1 -14.9 -4.4 84 0.7 NW 54 63 29 34 - - 0.0
19/09:00am -1.8 -14.5 -3.1 91 0.4 NW 54 67 29 36 - - -
19/08:30am -1.3 -12.4 -2.9 89 0.5 NW 46 59 25 32 - - -
19/08:24am -1.5 -12.0 -2.2 95 0.2 NW 43 61 23 33 - - -
19/08:00am -1.2 -11.6 -1.6 97 0.1 NW 43 59 23 32 - - -
19/07:30am -1.1 -9.9 -1.5 97 0.1 NW 35 50 19 27 - - -
19/07:00am -1.0 -9.3 -1.4 97 0.1 NW 32 41 17 22 - - -
19/06:30am -0.9 -8.4 -1.5 96 0.2 NNW 28 35 15 19 - - -
19/06:00am -0.4 -8.0 -2.1 88 0.6 NNW 28 39 15 21 - - -
19/05:30am 0.3 -8.3 -2.2 83 1.0 NW 33 43 18 23 - - -
19/05:00am 0.3 -8.9 -4.9 68 1.9 NNW 35 44 19 24 - - -
19/04:37am 1.0 -9.4 -4.6 66 2.1 NNW 41 59 22 32 - - -
19/04:30am 1.1 -10.2 -4.7 65 2.2 NNW 46 59 25 32 - - -
19/04:00am 1.7 -9.3 -5.0 61 2.6 N 44 56 24 30 - - -
19/03:30am 1.7 -9.1 -5.0 61 2.6 N 43 54 23 29 - - -
19/03:00am 1.7 -7.2 -5.0 61 2.6 NNW 33 50 18 27 - - -
19/02:30am 1.9 -7.4 -5.5 58 2.8 NW 35 48 19 26 - - -
19/02:00am 2.0 -9.4 -5.2 59 2.8 NW 46 65 25 35 - - -
19/01:50am 2.1 -8.8 -4.8 60 2.7 NW 44 65 24 35 - - -
19/01:30am 2.4 -8.0 -5.5 56 3.0 NNW 41 57 22 31 - - -
19/01:05am 2.1 -7.9 -5.1 59 2.8 NW 39 57 21 31 - - -
19/01:00am 2.3 -8.5 -5.3 57 2.9 NW 43 59 23 32 - - -
19/12:53am 2.5 -7.2 -5.6 55 3.1 NW 37 56 20 30 - - -
19/12:46am 2.2 -9.6 -5.4 57 2.9 NW 48 65 26 35 - - -
19/12:40am 1.8 -9.5 -4.9 61 2.6 NW 46 65 25 35 - - -
19/12:36am 1.9 -7.7 -4.4 63 2.5 NW 37 59 20 32 - - -
19/12:30am 2.0 -7.3 -5.2 59 2.8 NW 35 43 19 23 - - -
19/12:00am 2.6 -8.8 -5.8 54 3.2 NW 46 65 25 35 - - -
 
Date/Time
EST
Temp
°C
App
Temp
°C
Dew
Point
°C
Rel
Hum
%
Delta-T
°C
Wind Press
QNH
hPa
Press
MSL
hPa
Rain since
9am
mm
Dir  Spd
km/h
Gust
km/h
Spd
kts
Gust
kts
18/11:43pm 2.9 -10.1 -6.0 52 3.4 NW 54 69 29 37 - - -
18/11:31pm 3.1 -7.5 -6.6 49 3.7 NNW 41 67 22 36 - - 0.0
18/11:30pm 3.0 -7.5 -6.4 50 3.6 NNW 41 52 22 28 - - 0.0
18/11:05pm 3.0 -7.9 -6.1 51 3.5 NW 43 61 23 33 - - 0.0
18/11:00pm 3.0 -8.4 -5.9 52 3.4 NW 46 61 25 33 - - 0.0
18/10:33pm 3.3 -7.8 -6.4 49 3.7 NW 44 63 24 34 - - 0.0
18/10:30pm 3.4 -7.5 -6.3 49 3.7 NW 43 57 23 31 - - 0.0
18/10:00pm 3.3 -10.2 -6.1 50 3.6 NW 57 89 31 48 - - 0.0
18/09:54pm 3.2 -9.4 -5.9 51 3.5 NNW 52 85 28 46 - - 0.0
18/09:40pm 3.0 -8.8 -5.6 53 3.3 NNW 48 67 26 36 - - 0.0
18/09:30pm 2.7 -9.8 -5.2 56 3.1 NNW 52 61 28 33 - - 0.0
18/09:00pm 2.7 -10.2 -5.4 55 3.2 NW 54 65 29 35 - - 0.0
18/08:30pm 3.1 -9.8 -5.5 53 3.4 NW 54 63 29 34 - - 0.0
18/08:12pm 3.2 -9.7 -5.2 54 3.1 NW 54 72 29 39 - - 0.0
18/08:00pm 3.2 -10.3 -5.4 53 3.2 NW 57 70 31 38 - - 0.0
18/07:30pm 2.6 -10.6 -4.8 58 2.9 NW 56 69 30 37 - - 0.0
18/07:00pm 2.6 -11.5 -4.4 60 2.8 NW 61 72 33 39 - - 0.0
18/06:30pm 2.5 -10.8 -3.6 64 2.4 NW 57 72 31 39 - - 0.0
18/06:00pm 2.3 -9.9 -2.6 70 1.9 NW 52 61 28 33 - - 0.0
18/05:30pm 2.4 -10.7 -2.3 71 1.9 NW 57 70 31 38 - - 0.0
18/05:00pm 2.3 -12.0 -2.2 72 1.8 NW 63 72 34 39 - - 0.0
18/04:30pm 2.6 -11.7 -2.5 69 2.0 NNW 63 78 34 42 - - 0.0
18/04:00pm 2.4 -12.7 -2.5 70 1.9 NW 67 80 36 43 - - 0.0
18/03:42pm 2.6 -12.5 -2.5 69 2.0 NW 67 85 36 46 - - 0.0
18/03:30pm 2.4 -13.6 -2.7 69 2.0 NW 72 80 39 43 - - 0.0
18/03:00pm 2.3 -13.2 -3.0 68 2.1 NW 69 78 37 42 - - 0.0
18/02:30pm 2.2 -13.5 -3.3 67 2.1 NW 70 82 38 44 - - 0.0
18/02:00pm 2.0 -13.3 -4.3 63 2.5 NW 67 76 36 41 - - 0.0
18/01:30pm 1.7 -14.1 -4.4 64 2.4 NW 70 83 38 45 - - 0.0
18/01:03pm 1.6 -12.9 -4.5 64 2.4 NW 63 82 34 44 - - 0.0
18/01:00pm 1.6 -13.3 -4.7 63 2.4 NW 65 82 35 44 - - 0.0
18/12:30pm 1.5 -14.8 -5.2 61 2.5 NW 72 85 39 46 - - 0.0
18/12:00pm 1.4 -14.5 -5.1 62 2.5 NW 70 83 38 45 - - 0.0
18/11:35am 1.2 -15.6 -5.9 59 2.6 NW 74 93 40 50 - - 0.0
18/11:30am 1.3 -15.8 -6.0 58 2.7 WNW 76 93 41 50 - - 0.0
18/11:10am 0.9 -17.0 -5.8 61 2.5 WNW 80 98 43 53 - - 0.0
18/11:00am 0.9 -17.4 -6.0 60 2.5 WNW 82 98 44 53 - - 0.0
18/10:30am 0.8 -17.7 -5.8 61 2.4 WNW 83 96 45 52 - - 0.0
18/10:00am 0.6 -18.2 -5.6 63 2.3 WNW 85 104 46 56 - - 0.0
18/09:43am 0.5 -18.7 -5.5 64 2.2 WNW 87 106 47 57 - - 0.0
18/09:30am 0.3 -19.3 -5.5 65 2.1 WNW 89 102 48 55 - - 0.0
18/09:00am -0.1 -20.4 -5.3 68 1.9 WNW 93 107 50 58 - - 0.0
18/08:39am 0.0 -19.9 -5.4 67 1.9 WNW 91 109 49 59 - - 0.0
18/08:30am -0.1 -20.0 -5.3 68 1.9 WNW 91 106 49 57 - - 0.0
18/08:00am -0.3 -19.8 -5.3 69 1.8 WNW 89 104 48 56 - - 0.0
18/07:30am -0.4 -19.6 -6.0 66 2.0 WNW 87 100 47 54 - - 0.0
18/07:00am -0.6 -19.1 -5.8 68 1.8 WNW 83 95 45 51 - - 0.0
18/06:32am -0.4 -18.7 -5.8 67 1.9 WNW 82 100 44 54 - - 0.0
18/06:30am -0.5 -18.4 -5.9 67 1.9 WNW 80 95 43 51 - - 0.0
18/06:00am -0.6 -17.7 -6.0 67 1.9 WNW 76 91 41 49 - - 0.0
18/05:30am -0.5 -17.7 -6.1 66 1.9 WNW 76 89 41 48 - - 0.0

Other Formats:

Comma delimited format used in spreadsheet applications
http://www.bom.gov.au/fwo/IDN60801/IDN60801.95909.axf

JavaScript Object Notation format (JSON) in row-major order
http://www.bom.gov.au/fwo/IDN60801/IDN60801.95909.json